createdAt,value
2017-12-31T00:02:12.482Z,5.47
2017-12-31T00:04:40.138Z,4.90
2017-12-31T00:07:07.614Z,5.70
2017-12-31T00:09:35.873Z,5.23
2017-12-31T00:12:03.468Z,5.50
2017-12-31T00:14:31.077Z,5.70
2017-12-31T00:16:58.582Z,6.03
2017-12-31T00:19:26.064Z,5.57
2017-12-31T00:21:53.551Z,5.93
2017-12-31T00:24:21.302Z,5.40
2017-12-31T00:26:48.807Z,5.50
2017-12-31T00:29:17.093Z,5.70
2017-12-31T00:31:44.661Z,5.83
2017-12-31T00:34:12.159Z,5.93
2017-12-31T00:36:39.654Z,5.67
2017-12-31T00:39:07.982Z,6.03
2017-12-31T00:41:35.478Z,6.13
2017-12-31T00:44:02.971Z,5.33
2017-12-31T00:46:30.480Z,5.33
2017-12-31T00:48:58.086Z,5.80
2017-12-31T00:51:25.571Z,5.80
2017-12-31T00:53:53.092Z,5.77
2017-12-31T00:56:21.335Z,5.63
2017-12-31T00:58:49.594Z,6.03
2017-12-31T01:01:18.141Z,5.90
2017-12-31T01:03:45.677Z,5.53
2017-12-31T01:06:13.927Z,5.07
2017-12-31T01:08:41.441Z,4.43
2017-12-31T01:11:08.946Z,4.77
2017-12-31T01:13:36.441Z,4.63
2017-12-31T01:16:03.960Z,4.50
2017-12-31T01:18:31.458Z,4.20
2017-12-31T01:20:59.753Z,3.87
2017-12-31T01:23:27.250Z,4.10
2017-12-31T01:25:54.763Z,3.40
2017-12-31T01:28:22.308Z,3.87
2017-12-31T01:30:50.562Z,3.40
2017-12-31T01:33:18.056Z,3.77
2017-12-31T01:35:45.600Z,3.80
2017-12-31T01:38:13.103Z,3.90
2017-12-31T01:40:40.612Z,3.40
2017-12-31T01:43:08.867Z,3.43
2017-12-31T01:45:36.404Z,3.00
2017-12-31T01:48:03.916Z,3.70
2017-12-31T01:50:32.182Z,3.33
2017-12-31T01:53:00.471Z,3.60
2017-12-31T01:55:27.994Z,3.00
2017-12-31T01:57:55.485Z,3.60
2017-12-31T02:00:22.961Z,3.10
2017-12-31T02:02:50.460Z,3.10
2017-12-31T02:05:17.978Z,2.50
2017-12-31T02:07:45.480Z,3.10
2017-12-31T02:10:12.972Z,3.00
2017-12-31T02:12:41.242Z,3.40
2017-12-31T02:15:09.506Z,3.10
2017-12-31T02:17:37.783Z,2.60
2017-12-31T02:20:05.276Z,2.67
2017-12-31T02:22:32.766Z,2.60
2017-12-31T02:25:00.257Z,3.03
2017-12-31T02:27:27.763Z,2.70
2017-12-31T02:29:55.303Z,3.10
2017-12-31T02:32:22.882Z,2.97
2017-12-31T02:34:50.402Z,2.77
2017-12-31T02:37:18.652Z,2.63
2017-12-31T02:39:46.133Z,2.67
2017-12-31T02:42:14.408Z,3.17
2017-12-31T02:44:42.006Z,2.70
2017-12-31T02:47:09.497Z,2.67
2017-12-31T02:49:38.395Z,2.53
2017-12-31T02:52:05.907Z,3.27
2017-12-31T02:54:33.401Z,2.57
2017-12-31T02:57:00.910Z,2.70
2017-12-31T02:59:29.207Z,2.77
2017-12-31T03:01:56.691Z,2.97
2017-12-31T03:04:24.287Z,3.00
2017-12-31T03:06:52.584Z,2.97
2017-12-31T03:09:20.071Z,2.80
2017-12-31T03:11:47.566Z,3.13
2017-12-31T03:14:15.040Z,2.60
2017-12-31T03:16:43.301Z,2.90
2017-12-31T03:19:11.563Z,2.90
2017-12-31T03:21:39.065Z,3.30
2017-12-31T03:24:07.339Z,2.67
2017-12-31T03:26:35.618Z,4.03
2017-12-31T03:29:03.883Z,2.80
2017-12-31T03:31:32.141Z,2.83
2017-12-31T03:33:59.659Z,3.10
2017-12-31T03:36:27.196Z,2.80
2017-12-31T03:38:54.690Z,3.57
2017-12-31T03:41:22.206Z,3.40
2017-12-31T03:43:49.796Z,2.87
2017-12-31T03:46:17.330Z,3.33
2017-12-31T03:48:44.824Z,3.03
2017-12-31T03:51:12.693Z,3.10
2017-12-31T03:53:40.196Z,2.77
2017-12-31T03:56:08.451Z,3.00
2017-12-31T03:58:35.960Z,3.60
2017-12-31T04:01:03.444Z,3.20
2017-12-31T04:03:31.569Z,3.77
2017-12-31T04:05:59.857Z,3.23
2017-12-31T04:08:27.330Z,3.07
2017-12-31T04:10:54.833Z,3.37
2017-12-31T04:13:22.487Z,3.40
2017-12-31T04:15:50.091Z,3.83
2017-12-31T04:18:18.343Z,3.20
2017-12-31T04:20:46.607Z,3.13
2017-12-31T04:23:14.208Z,3.53
2017-12-31T04:25:41.760Z,3.43
2017-12-31T04:28:10.113Z,3.53
2017-12-31T04:30:37.698Z,3.67
2017-12-31T04:33:05.198Z,2.93
2017-12-31T04:35:32.715Z,4.43
2017-12-31T04:38:00.240Z,3.63
2017-12-31T04:40:27.727Z,3.60
2017-12-31T04:42:55.985Z,3.73
2017-12-31T04:45:23.505Z,3.70
2017-12-31T04:47:51.024Z,3.83
2017-12-31T04:50:19.270Z,3.90
2017-12-31T04:52:46.865Z,4.60
2017-12-31T04:55:15.128Z,4.23
2017-12-31T04:57:43.397Z,4.93
2017-12-31T05:00:11.669Z,3.90
2017-12-31T05:02:39.173Z,4.63
2017-12-31T05:05:06.681Z,4.43
2017-12-31T05:07:34.307Z,4.60
2017-12-31T05:10:02.738Z,4.67
2017-12-31T05:12:30.988Z,4.20
2017-12-31T05:14:59.308Z,4.53
2017-12-31T05:17:26.795Z,4.33
2017-12-31T05:19:54.319Z,5.13
2017-12-31T05:22:22.577Z,5.43
2017-12-31T05:24:50.830Z,4.73
2017-12-31T05:27:18.328Z,4.70
2017-12-31T05:29:46.591Z,4.70
2017-12-31T05:32:15.955Z,4.10
2017-12-31T05:34:43.452Z,4.30
2017-12-31T05:37:11.715Z,4.70
2017-12-31T05:39:40.011Z,4.43
2017-12-31T05:42:08.263Z,3.83
2017-12-31T05:44:35.759Z,4.60
2017-12-31T05:47:03.300Z,4.77
2017-12-31T05:49:31.578Z,4.00
2017-12-31T05:51:59.836Z,4.63
2017-12-31T05:54:28.145Z,4.93
2017-12-31T05:56:55.645Z,4.47
2017-12-31T05:59:23.133Z,4.63
2017-12-31T06:01:50.722Z,4.07
2017-12-31T06:04:18.202Z,4.17
2017-12-31T06:06:45.700Z,4.30
2017-12-31T06:09:13.222Z,3.70
2017-12-31T06:11:40.727Z,4.10
2017-12-31T06:14:08.267Z,3.43
2017-12-31T06:16:35.756Z,3.60
2017-12-31T06:19:04.031Z,3.73
2017-12-31T06:21:31.547Z,3.90
2017-12-31T06:23:59.216Z,3.60
2017-12-31T06:26:26.747Z,4.00
2017-12-31T06:28:54.292Z,4.20
2017-12-31T06:31:21.793Z,4.00
2017-12-31T06:33:49.293Z,3.93
2017-12-31T06:36:17.578Z,4.50
2017-12-31T06:38:45.079Z,4.50
2017-12-31T06:41:12.651Z,4.00
2017-12-31T06:43:40.158Z,4.63
2017-12-31T06:46:07.733Z,4.40
2017-12-31T06:48:35.256Z,3.80
2017-12-31T06:51:03.559Z,4.40
2017-12-31T06:53:31.097Z,4.17
2017-12-31T06:55:59.475Z,4.37
2017-12-31T06:58:27.767Z,4.33
2017-12-31T07:00:55.394Z,4.00
2017-12-31T07:03:22.883Z,4.30
2017-12-31T07:05:50.435Z,4.40
2017-12-31T07:08:18.842Z,4.00
2017-12-31T07:10:46.420Z,4.67
2017-12-31T07:13:13.929Z,4.20
2017-12-31T07:15:42.413Z,4.30
2017-12-31T07:18:10.680Z,4.87
2017-12-31T07:20:38.176Z,5.30
2017-12-31T07:23:05.759Z,4.37
2017-12-31T07:25:33.283Z,4.60
2017-12-31T07:28:00.831Z,5.00
2017-12-31T07:30:28.428Z,5.83
2017-12-31T07:32:55.951Z,15.40
2017-12-31T07:35:23.524Z,5.20
2017-12-31T07:37:51.012Z,6.73
2017-12-31T07:40:18.539Z,5.73
2017-12-31T07:42:46.085Z,5.07
2017-12-31T07:45:14.362Z,5.70
2017-12-31T07:47:41.884Z,5.17
2017-12-31T07:50:09.516Z,5.37
2017-12-31T07:52:37.042Z,4.93
2017-12-31T07:55:04.559Z,5.60
2017-12-31T07:57:32.086Z,7.20
2017-12-31T08:00:00.024Z,4.97
2017-12-31T08:02:28.300Z,5.97
2017-12-31T08:04:56.588Z,6.70
2017-12-31T08:07:24.106Z,10.70
2017-12-31T08:09:51.624Z,5.83
2017-12-31T08:12:19.111Z,5.60
2017-12-31T08:14:46.619Z,6.23
2017-12-31T08:17:14.132Z,6.73
2017-12-31T08:19:41.629Z,7.70
2017-12-31T08:22:09.935Z,6.37
2017-12-31T08:24:37.413Z,7.83
2017-12-31T08:27:04.900Z,7.33
2017-12-31T08:29:33.218Z,7.43
2017-12-31T08:32:00.733Z,6.93
2017-12-31T08:34:28.235Z,8.10
2017-12-31T08:36:55.808Z,7.80
2017-12-31T08:39:23.311Z,7.97
2017-12-31T08:41:51.844Z,7.60
2017-12-31T08:44:19.347Z,7.87
2017-12-31T08:46:46.995Z,9.27
2017-12-31T08:49:14.505Z,8.33
2017-12-31T08:51:42.011Z,8.67
2017-12-31T08:54:09.507Z,7.67
2017-12-31T08:56:37.820Z,8.50
2017-12-31T08:59:05.320Z,9.10
2017-12-31T09:01:32.890Z,8.57
2017-12-31T09:04:00.385Z,9.20
2017-12-31T09:06:27.992Z,9.23
2017-12-31T09:08:55.575Z,9.10
2017-12-31T09:11:23.846Z,8.67
2017-12-31T09:13:52.204Z,8.00
2017-12-31T09:16:19.714Z,7.57
2017-12-31T09:18:47.267Z,7.77
2017-12-31T09:21:14.906Z,8.40
2017-12-31T09:23:43.197Z,7.47
2017-12-31T09:26:11.511Z,7.73
2017-12-31T09:28:39.015Z,7.70
2017-12-31T09:31:07.334Z,7.27
2017-12-31T09:33:35.023Z,8.53
2017-12-31T09:36:03.366Z,8.43
2017-12-31T09:38:30.927Z,8.53
2017-12-31T09:40:58.428Z,8.57
2017-12-31T09:43:26.083Z,8.10
2017-12-31T09:45:53.650Z,8.97
2017-12-31T09:48:21.924Z,8.20
2017-12-31T09:50:49.459Z,8.00
2017-12-31T09:53:17.023Z,10.03
2017-12-31T09:55:44.968Z,7.80
2017-12-31T09:58:12.467Z,7.70
2017-12-31T10:00:40.041Z,7.10
2017-12-31T10:03:07.529Z,7.23
2017-12-31T10:05:35.783Z,8.50
2017-12-31T10:08:03.316Z,10.10
2017-12-31T10:10:30.816Z,8.17
2017-12-31T10:12:59.067Z,7.30
2017-12-31T10:15:26.703Z,7.53
2017-12-31T10:17:54.290Z,7.87
2017-12-31T10:20:21.802Z,7.67
2017-12-31T10:22:49.283Z,9.57
2017-12-31T10:25:16.876Z,7.27
2017-12-31T10:27:44.471Z,7.87
2017-12-31T10:30:11.960Z,7.47
2017-12-31T10:32:40.301Z,11.70
2017-12-31T10:35:07.815Z,8.93
2017-12-31T10:37:35.336Z,7.60
2017-12-31T10:40:02.858Z,9.07
2017-12-31T10:42:31.127Z,7.47
2017-12-31T10:44:58.896Z,9.13
2017-12-31T10:47:26.441Z,6.47
2017-12-31T10:49:53.942Z,9.23
2017-12-31T10:52:21.444Z,8.47
2017-12-31T10:54:48.960Z,8.30
2017-12-31T10:57:16.456Z,6.30
2017-12-31T10:59:44.079Z,7.10
2017-12-31T11:02:11.612Z,6.37
2017-12-31T11:04:39.912Z,6.20
2017-12-31T11:07:07.403Z,5.23
2017-12-31T11:09:34.919Z,4.83
2017-12-31T11:12:03.175Z,5.57
2017-12-31T11:14:31.780Z,5.13
2017-12-31T11:17:00.325Z,7.27
2017-12-31T11:19:27.884Z,5.77
2017-12-31T11:21:55.392Z,4.73
2017-12-31T11:24:22.881Z,4.47
2017-12-31T11:26:50.373Z,5.20
2017-12-31T11:29:17.961Z,4.83
2017-12-31T11:31:45.485Z,3.93
2017-12-31T11:34:14.518Z,3.97
2017-12-31T11:36:42.034Z,4.23
2017-12-31T11:39:09.518Z,4.20
2017-12-31T11:41:37.781Z,4.30
2017-12-31T11:44:05.294Z,4.90
2017-12-31T11:46:32.809Z,4.10
2017-12-31T11:49:01.168Z,4.03
2017-12-31T11:51:28.875Z,3.90
2017-12-31T11:53:56.454Z,3.90
2017-12-31T11:56:23.976Z,4.27
2017-12-31T11:58:52.236Z,3.07
2017-12-31T12:01:20.491Z,3.70
2017-12-31T12:03:48.090Z,3.80
2017-12-31T12:06:16.359Z,4.50
2017-12-31T12:08:43.903Z,4.00
2017-12-31T12:11:12.207Z,4.03
2017-12-31T12:13:40.492Z,3.60
2017-12-31T12:16:08.020Z,3.50
2017-12-31T12:18:35.498Z,3.93
2017-12-31T12:21:03.775Z,3.50
2017-12-31T12:23:32.044Z,3.40
2017-12-31T12:25:59.716Z,3.53
2017-12-31T12:28:27.227Z,3.20
2017-12-31T12:30:54.736Z,3.40
2017-12-31T12:33:22.248Z,3.30
2017-12-31T12:35:49.783Z,3.07
2017-12-31T12:38:17.303Z,3.40
2017-12-31T12:40:45.583Z,3.50
2017-12-31T12:43:13.109Z,3.23
2017-12-31T12:45:40.634Z,2.83
2017-12-31T12:48:08.126Z,2.90
2017-12-31T12:50:35.675Z,3.20
2017-12-31T12:53:03.169Z,3.00
2017-12-31T12:55:30.689Z,3.00
2017-12-31T12:57:58.200Z,3.20
2017-12-31T13:00:25.727Z,3.30
2017-12-31T13:02:53.225Z,3.27
2017-12-31T13:05:20.799Z,3.20
2017-12-31T13:07:48.312Z,3.77
2017-12-31T13:10:15.794Z,4.50
2017-12-31T13:12:43.291Z,4.40
2017-12-31T13:15:10.847Z,3.10
2017-12-31T13:17:38.492Z,3.27
2017-12-31T13:20:06.050Z,3.60
2017-12-31T13:22:33.547Z,3.50
2017-12-31T13:25:01.062Z,3.20
2017-12-31T13:27:28.558Z,3.10
2017-12-31T13:29:56.844Z,3.20
2017-12-31T13:32:24.384Z,3.77
2017-12-31T13:34:52.064Z,2.90
2017-12-31T13:37:19.655Z,3.20
2017-12-31T13:39:47.972Z,3.17
2017-12-31T13:42:15.485Z,3.00
2017-12-31T13:44:49.422Z,3.30
2017-12-31T13:47:17.854Z,3.27
2017-12-31T13:49:45.361Z,3.40
2017-12-31T13:52:12.865Z,3.10
2017-12-31T13:54:40.387Z,2.80
2017-12-31T13:57:07.894Z,3.03
2017-12-31T13:59:35.521Z,3.30
2017-12-31T14:02:03.025Z,2.70
2017-12-31T14:04:31.300Z,2.87
2017-12-31T14:06:59.597Z,3.00
2017-12-31T14:09:27.878Z,3.20
2017-12-31T14:11:55.363Z,4.10
2017-12-31T14:14:22.861Z,3.50
2017-12-31T14:16:51.192Z,3.00
2017-12-31T14:19:18.703Z,4.50
2017-12-31T14:21:46.960Z,3.57
2017-12-31T14:24:14.460Z,2.97
2017-12-31T14:26:42.721Z,3.20
2017-12-31T14:29:11.067Z,3.00
2017-12-31T14:31:39.331Z,2.73
2017-12-31T14:34:06.829Z,3.00
2017-12-31T14:36:35.103Z,2.93
2017-12-31T14:39:02.620Z,2.97
2017-12-31T14:41:30.115Z,2.80
2017-12-31T14:43:57.608Z,2.30
2017-12-31T14:46:25.228Z,2.97
2017-12-31T14:48:52.814Z,2.80
2017-12-31T14:51:21.071Z,2.47
2017-12-31T14:53:48.583Z,3.30
2017-12-31T14:56:16.066Z,2.60
2017-12-31T14:58:43.594Z,2.60
2017-12-31T15:01:11.114Z,2.90
2017-12-31T15:03:39.394Z,2.87
2017-12-31T15:06:07.676Z,2.90
2017-12-31T15:08:36.034Z,2.90
2017-12-31T15:11:04.232Z,3.37
2017-12-31T15:13:32.496Z,2.90
2017-12-31T15:16:00.750Z,2.90
2017-12-31T15:18:28.289Z,3.23
2017-12-31T15:20:55.870Z,3.57
2017-12-31T15:23:23.382Z,3.10
2017-12-31T15:25:51.727Z,2.57
2017-12-31T15:28:19.225Z,2.87
2017-12-31T15:30:46.719Z,2.70
2017-12-31T15:33:14.261Z,2.70
2017-12-31T15:35:41.816Z,3.27
2017-12-31T15:38:09.318Z,3.20
2017-12-31T15:40:37.618Z,3.40
2017-12-31T15:43:05.108Z,2.87
2017-12-31T15:45:32.620Z,2.87
2017-12-31T15:48:00.927Z,3.77
2017-12-31T15:50:28.407Z,3.00
2017-12-31T15:52:55.918Z,2.97
2017-12-31T15:55:24.345Z,2.83
2017-12-31T15:57:51.879Z,3.43
2017-12-31T16:00:19.387Z,3.83
2017-12-31T16:02:46.912Z,3.30
2017-12-31T16:05:14.545Z,3.20
2017-12-31T16:07:42.038Z,3.47
2017-12-31T16:10:09.552Z,3.70
2017-12-31T16:12:38.036Z,3.67
2017-12-31T16:15:05.630Z,3.30
2017-12-31T16:17:33.345Z,3.30
2017-12-31T16:20:01.948Z,3.67
2017-12-31T16:22:29.497Z,3.43
2017-12-31T16:24:57.042Z,3.67
2017-12-31T16:27:26.191Z,3.87
2017-12-31T16:29:53.765Z,3.53
2017-12-31T16:32:21.305Z,4.97
2017-12-31T16:34:48.802Z,4.53
2017-12-31T16:37:16.300Z,3.80
2017-12-31T16:39:43.815Z,3.43
2017-12-31T16:42:11.300Z,5.00
2017-12-31T16:44:39.684Z,4.50
2017-12-31T16:47:07.176Z,3.10
2017-12-31T16:49:34.696Z,3.50
2017-12-31T16:52:02.949Z,3.50
2017-12-31T16:54:30.445Z,3.20
2017-12-31T16:56:58.717Z,5.10
2017-12-31T16:59:27.229Z,4.00
2017-12-31T17:01:55.125Z,3.90
2017-12-31T17:04:22.795Z,3.83
2017-12-31T17:06:50.299Z,3.20
2017-12-31T17:09:17.815Z,3.70
2017-12-31T17:11:45.331Z,4.23
2017-12-31T17:14:12.824Z,4.07
2017-12-31T17:16:40.342Z,4.00
2017-12-31T17:19:08.166Z,4.93
2017-12-31T17:21:36.449Z,4.03
2017-12-31T17:24:04.718Z,7.10
2017-12-31T17:26:32.212Z,4.20
2017-12-31T17:28:59.704Z,4.90
2017-12-31T17:31:27.198Z,4.50
2017-12-31T17:33:55.253Z,5.13
2017-12-31T17:36:22.762Z,5.00
2017-12-31T17:38:50.275Z,5.80
2017-12-31T17:41:17.768Z,4.27
2017-12-31T17:43:45.297Z,8.37
2017-12-31T17:46:12.798Z,4.87
2017-12-31T17:48:40.310Z,4.17
2017-12-31T17:51:08.069Z,4.17
2017-12-31T17:53:35.645Z,4.30
2017-12-31T17:56:07.480Z,4.90
2017-12-31T17:58:35.080Z,5.30
2017-12-31T18:01:02.693Z,3.67
2017-12-31T18:03:30.348Z,4.17
2017-12-31T18:05:57.839Z,4.70
2017-12-31T18:08:25.327Z,4.90
2017-12-31T18:10:52.832Z,3.83
2017-12-31T18:13:20.327Z,3.60
2017-12-31T18:15:48.603Z,4.07
2017-12-31T18:18:16.878Z,6.40
2017-12-31T18:20:45.131Z,3.57
2017-12-31T18:23:13.399Z,3.97
2017-12-31T18:25:40.880Z,4.20
2017-12-31T18:28:08.419Z,5.37
2017-12-31T18:30:36.715Z,6.70
2017-12-31T18:33:04.204Z,5.13
2017-12-31T18:35:31.708Z,7.20
2017-12-31T18:37:59.230Z,6.57
2017-12-31T18:40:26.723Z,5.03
2017-12-31T18:42:54.206Z,5.10
2017-12-31T18:45:21.722Z,6.27
2017-12-31T18:47:49.612Z,6.83
2017-12-31T18:50:17.095Z,7.57
2017-12-31T18:52:45.408Z,7.73
2017-12-31T18:55:12.894Z,8.63
2017-12-31T18:57:40.781Z,11.60
2017-12-31T19:00:08.806Z,14.03
2017-12-31T19:02:36.299Z,30.47
2017-12-31T19:05:03.821Z,12.07
2017-12-31T19:07:31.318Z,10.00
2017-12-31T19:09:58.830Z,6.73
2017-12-31T19:12:26.324Z,8.13
2017-12-31T19:14:53.842Z,8.03
2017-12-31T19:17:21.365Z,9.03
2017-12-31T19:19:49.177Z,10.90
2017-12-31T19:22:16.842Z,15.37
2017-12-31T19:24:44.327Z,11.67
2017-12-31T19:27:11.806Z,10.37
2017-12-31T19:29:39.309Z,17.50
2017-12-31T19:32:06.801Z,15.03
2017-12-31T19:34:34.303Z,11.23
2017-12-31T19:37:02.612Z,10.67
2017-12-31T19:39:30.154Z,11.07
2017-12-31T19:41:57.675Z,13.27
2017-12-31T19:44:25.167Z,21.40
2017-12-31T19:46:53.430Z,12.10
2017-12-31T19:49:21.686Z,9.07
2017-12-31T19:51:49.975Z,14.50
2017-12-31T19:54:17.460Z,16.70
2017-12-31T19:56:44.995Z,25.93
2017-12-31T19:59:13.269Z,26.07
2017-12-31T20:01:40.770Z,20.83
2017-12-31T20:04:08.265Z,14.97
2017-12-31T20:06:35.766Z,13.70
2017-12-31T20:09:03.259Z,17.67
2017-12-31T20:11:30.824Z,17.93
2017-12-31T20:13:59.048Z,14.80
2017-12-31T20:16:27.312Z,14.40
2017-12-31T20:18:54.823Z,9.43
2017-12-31T20:21:22.315Z,11.63
2017-12-31T20:23:49.826Z,13.43
2017-12-31T20:26:17.311Z,13.93
2017-12-31T20:28:44.808Z,22.77
2017-12-31T20:31:13.086Z,21.43
2017-12-31T20:33:41.345Z,13.03
2017-12-31T20:36:08.861Z,14.87
2017-12-31T20:38:36.723Z,12.83
2017-12-31T20:41:04.220Z,11.37
2017-12-31T20:43:31.734Z,11.17
2017-12-31T20:45:59.256Z,10.80
2017-12-31T20:48:27.532Z,12.00
2017-12-31T20:50:55.842Z,8.83
2017-12-31T20:53:23.372Z,13.77
2017-12-31T20:55:51.627Z,10.73
2017-12-31T20:58:19.224Z,17.53
2017-12-31T21:00:47.932Z,14.73
2017-12-31T21:03:15.423Z,11.63
2017-12-31T21:05:42.931Z,9.90
2017-12-31T21:08:10.432Z,14.23
2017-12-31T21:10:38.327Z,9.87
2017-12-31T21:13:06.686Z,8.50
2017-12-31T21:15:34.215Z,8.83
2017-12-31T21:18:01.731Z,9.47
2017-12-31T21:20:29.290Z,12.70
2017-12-31T21:22:57.595Z,12.00
2017-12-31T21:25:25.097Z,24.83
2017-12-31T21:27:52.699Z,17.00
2017-12-31T21:30:20.978Z,17.20
2017-12-31T21:32:49.270Z,17.70
2017-12-31T21:35:16.791Z,15.40
2017-12-31T21:37:45.102Z,17.10
2017-12-31T21:40:12.662Z,13.10
2017-12-31T21:42:40.238Z,9.33
2017-12-31T21:45:07.784Z,10.03
2017-12-31T21:47:35.286Z,9.10
2017-12-31T21:50:03.163Z,8.27
2017-12-31T21:52:30.778Z,8.27
2017-12-31T21:54:58.320Z,8.83
2017-12-31T21:57:26.640Z,7.40
2017-12-31T21:59:54.160Z,8.07
2017-12-31T22:02:21.672Z,7.60
2017-12-31T22:04:49.277Z,11.93
2017-12-31T22:07:16.770Z,15.47
2017-12-31T22:09:44.290Z,18.13
2017-12-31T22:12:12.624Z,27.93
2017-12-31T22:14:40.131Z,23.37
2017-12-31T22:17:07.637Z,10.03
2017-12-31T22:19:35.147Z,22.57
2017-12-31T22:22:02.656Z,16.70
2017-12-31T22:24:30.190Z,13.27
2017-12-31T22:26:57.725Z,13.33
2017-12-31T22:29:25.246Z,9.73
2017-12-31T22:31:53.376Z,9.97
2017-12-31T22:34:21.341Z,10.27
2017-12-31T22:36:51.244Z,9.03
2017-12-31T22:39:18.798Z,13.87
2017-12-31T22:41:46.307Z,15.97
2017-12-31T22:44:14.379Z,16.27
2017-12-31T22:46:42.252Z,15.80
2017-12-31T22:49:10.247Z,13.93
2017-12-31T22:51:38.541Z,18.27
2017-12-31T22:54:06.117Z,15.57
2017-12-31T22:56:34.091Z,12.53
2017-12-31T22:59:01.634Z,15.33
2017-12-31T23:01:29.467Z,29.83
2017-12-31T23:03:56.983Z,59.10
2017-12-31T23:06:24.494Z,153.33
2017-12-31T23:08:52.794Z,287.43
2017-12-31T23:11:20.354Z,157.17
2017-12-31T23:13:47.917Z,216.93
2017-12-31T23:16:15.476Z,212.70
2017-12-31T23:18:43.108Z,270.80
2017-12-31T23:21:11.411Z,243.53
2017-12-31T23:23:38.967Z,218.90
2017-12-31T23:26:06.496Z,170.73
2017-12-31T23:28:34.013Z,182.40
2017-12-31T23:31:01.538Z,128.50
2017-12-31T23:33:29.819Z,87.80
2017-12-31T23:35:57.702Z,71.80
2017-12-31T23:38:25.240Z,56.27
2017-12-31T23:40:53.079Z,47.63
2017-12-31T23:43:20.835Z,46.10
2017-12-31T23:45:48.344Z,44.43
2017-12-31T23:48:16.760Z,67.27
2017-12-31T23:50:44.291Z,45.70
2017-12-31T23:53:11.858Z,39.80
2017-12-31T23:55:39.464Z,28.03
2017-12-31T23:58:07.324Z,27.60
